createdAt,value
2022-08-21T06:26:48.713Z,9.45
2022-08-21T06:35:57.115Z,7.85
2022-08-21T06:39:01.752Z,6.05
2022-08-21T06:45:07.678Z,11.48
2022-08-21T06:47:51.612Z,8.75
2022-08-21T06:50:36.019Z,6.57
2022-08-21T06:55:51.847Z,8.23
2022-08-21T06:58:41.494Z,8.90
2022-08-21T07:01:18.974Z,8.07
2022-08-21T07:04:06.404Z,8.65
2022-08-21T07:09:40.628Z,9.07
2022-08-21T07:12:27.510Z,7.65
2022-08-21T07:15:11.175Z,7.35
2022-08-21T07:20:36.350Z,7.72
2022-08-21T07:23:12.082Z,9.20
2022-08-21T07:25:46.271Z,10.70
2022-08-21T07:28:30.424Z,6.70
2022-08-21T07:33:50.527Z,7.65
2022-08-21T07:36:30.930Z,6.03
2022-08-21T07:39:27.169Z,5.20
2022-08-21T07:42:08.193Z,9.95
2022-08-21T07:44:44.498Z,7.65
2022-08-21T07:47:41.871Z,10.05
2022-08-21T07:50:44.394Z,6.75
2022-08-21T07:53:30.926Z,6.85
2022-08-21T07:59:20.008Z,5.72
2022-08-21T08:02:05.875Z,6.72
2022-08-21T08:04:51.169Z,7.35
2022-08-21T08:07:31.108Z,5.45
2022-08-21T08:10:18.534Z,3.60
2022-08-21T08:12:59.610Z,3.80
2022-08-21T08:15:41.885Z,7.00
2022-08-21T08:18:33.850Z,3.05
2022-08-21T08:21:10.213Z,5.90
2022-08-21T08:23:51.344Z,5.00
2022-08-21T08:26:30.794Z,3.95
2022-08-21T08:29:13.442Z,4.30
2022-08-21T08:31:56.093Z,3.45
2022-08-21T08:37:34.259Z,3.35
2022-08-21T08:40:11.665Z,2.03
2022-08-21T08:42:58.270Z,3.70
2022-08-21T08:45:53.867Z,5.17
2022-08-21T08:48:34.541Z,4.30
2022-08-21T08:51:21.168Z,4.88
2022-08-21T08:57:21.910Z,3.05
2022-08-21T09:00:12.574Z,2.67
2022-08-21T09:03:10.435Z,4.80
2022-08-21T09:06:40.787Z,2.50
2022-08-21T09:09:47.280Z,4.88
2022-08-21T09:15:06.288Z,3.90
2022-08-21T09:17:54.707Z,3.95
2022-08-21T09:21:17.563Z,2.70
2022-08-21T09:23:52.494Z,2.30
2022-08-21T09:26:52.338Z,3.10
2022-08-21T09:32:37.068Z,2.60
2022-08-21T09:35:16.019Z,3.30
2022-08-21T09:38:26.764Z,4.53
2022-08-21T09:41:14.460Z,3.10
2022-08-21T09:43:52.116Z,3.25
2022-08-21T09:46:33.603Z,2.53
2022-08-21T09:52:08.123Z,2.45
2022-08-21T09:54:54.449Z,3.00
2022-08-21T09:57:29.506Z,3.75
2022-08-21T10:00:28.990Z,3.00
2022-08-21T10:03:26.619Z,2.83
2022-08-21T10:08:47.368Z,2.58
2022-08-21T10:11:31.503Z,3.00
2022-08-21T10:14:06.907Z,2.63
2022-08-21T10:17:14.019Z,2.50
2022-08-21T10:25:07.380Z,2.63
2022-08-21T10:28:25.732Z,1.73
2022-08-21T10:31:19.374Z,1.75
2022-08-21T10:33:59.655Z,2.47
2022-08-21T10:37:10.847Z,2.13
2022-08-21T10:40:30.160Z,2.83
2022-08-21T10:43:10.499Z,1.73
2022-08-21T10:49:34.953Z,3.30
2022-08-21T10:52:22.447Z,2.60
2022-08-21T10:55:01.899Z,2.15
2022-08-21T10:58:05.623Z,1.50
2022-08-21T11:00:47.197Z,3.83
2022-08-21T11:04:10.264Z,1.80
2022-08-21T11:09:32.409Z,1.88
2022-08-21T11:12:15.922Z,2.65
2022-08-21T11:15:44.538Z,1.47
2022-08-21T11:18:23.942Z,3.03
2022-08-21T11:21:09.973Z,1.90
2022-08-21T11:23:45.501Z,2.05
2022-08-21T11:26:40.781Z,2.40
2022-08-21T11:29:15.759Z,1.98
2022-08-21T11:32:16.365Z,2.13
2022-08-21T11:37:36.307Z,2.60
2022-08-21T11:40:24.822Z,1.98
2022-08-21T11:43:20.200Z,2.78
2022-08-21T11:45:51.533Z,1.13
2022-08-21T11:48:50.368Z,2.25
2022-08-21T11:51:45.796Z,2.83
2022-08-21T11:54:35.403Z,2.67
2022-08-21T11:59:57.311Z,3.17
2022-08-21T12:02:50.452Z,2.88
2022-08-21T12:05:42.287Z,2.22
2022-08-21T12:08:34.214Z,3.80
2022-08-21T12:11:06.231Z,3.15
2022-08-21T12:14:33.659Z,1.70
2022-08-21T12:17:08.860Z,2.30
2022-08-21T12:19:39.778Z,1.85
2022-08-21T12:22:17.077Z,2.25
2022-08-21T12:25:07.916Z,1.52
2022-08-21T12:28:11.898Z,2.55
2022-08-21T12:30:47.395Z,2.58
2022-08-21T12:33:41.966Z,3.58
2022-08-21T12:36:21.107Z,1.73
2022-08-21T12:39:19.922Z,2.35
2022-08-21T12:42:24.027Z,2.17
2022-08-21T12:45:04.323Z,1.38
2022-08-21T12:47:46.377Z,1.85
2022-08-21T12:50:19.783Z,1.95
2022-08-21T12:53:18.643Z,2.90
2022-08-21T12:55:48.153Z,2.95
2022-08-21T12:58:43.422Z,1.20
2022-08-21T13:01:20.854Z,3.00
2022-08-21T13:03:58.869Z,1.42
2022-08-21T13:06:41.652Z,2.60
2022-08-21T13:09:13.921Z,1.83
2022-08-21T13:11:45.119Z,2.03
2022-08-21T13:14:30.027Z,2.05
2022-08-21T13:16:59.789Z,1.85
2022-08-21T13:19:31.790Z,2.50
2022-08-21T13:21:59.595Z,3.40
2022-08-21T13:24:43.367Z,2.63
2022-08-21T13:27:24.418Z,3.08
2022-08-21T13:30:07.708Z,1.83
2022-08-21T13:32:43.716Z,0.80
2022-08-21T13:35:29.523Z,2.58
2022-08-21T13:38:01.861Z,1.85
2022-08-21T13:41:06.279Z,2.50
2022-08-21T13:43:39.565Z,1.65
2022-08-21T13:46:22.888Z,3.10
2022-08-21T13:48:50.282Z,2.15
2022-08-21T13:51:25.834Z,1.90
2022-08-21T13:53:54.319Z,2.05
2022-08-21T13:56:28.799Z,3.42
2022-08-21T13:58:57.811Z,2.13
2022-08-21T14:01:37.323Z,2.77
2022-08-21T14:04:16.122Z,2.05
2022-08-21T14:06:47.046Z,1.50
2022-08-21T14:09:41.683Z,1.83
2022-08-21T14:12:28.990Z,2.22
2022-08-21T14:14:57.930Z,2.05
2022-08-21T14:17:43.301Z,2.60
2022-08-21T14:20:29.195Z,1.38
2022-08-21T14:22:58.381Z,1.10
2022-08-21T14:25:26.376Z,1.60
2022-08-21T14:28:09.579Z,1.27
2022-08-21T14:30:38.780Z,2.85
2022-08-21T14:33:29.771Z,3.30
2022-08-21T14:36:00.440Z,2.17
2022-08-21T14:38:38.756Z,3.92
2022-08-21T14:41:24.900Z,1.00
2022-08-21T14:43:59.762Z,1.65
2022-08-21T14:46:51.633Z,1.88
2022-08-21T14:49:22.883Z,1.35
2022-08-21T14:51:55.620Z,0.98
2022-08-21T14:54:31.370Z,3.75
2022-08-21T14:57:22.441Z,2.50
2022-08-21T14:59:51.855Z,1.60
2022-08-21T15:02:32.147Z,2.53
2022-08-21T15:04:59.680Z,3.00
2022-08-21T15:07:29.340Z,1.70
2022-08-21T15:10:00.745Z,4.97
2022-08-21T15:12:28.035Z,2.72
2022-08-21T15:15:00.628Z,3.42
2022-08-21T15:17:30.576Z,2.45
2022-08-21T15:22:48.702Z,1.35
2022-08-21T15:30:38.442Z,2.28
2022-08-21T15:33:06.191Z,2.50
2022-08-21T15:35:45.751Z,3.00
2022-08-21T15:38:17.490Z,2.10
2022-08-21T15:40:51.561Z,2.17
2022-08-21T15:43:31.630Z,1.70
2022-08-21T15:46:16.304Z,2.60
2022-08-21T15:48:45.352Z,3.95
2022-08-21T15:51:22.431Z,1.58
2022-08-21T15:53:50.893Z,4.18
2022-08-21T15:56:29.833Z,3.28
2022-08-21T15:59:14.268Z,2.70
2022-08-21T16:01:44.933Z,3.88
2022-08-21T16:04:34.380Z,1.85
2022-08-21T16:07:06.555Z,4.47
2022-08-21T16:09:41.055Z,2.63
2022-08-21T16:12:11.611Z,2.15
2022-08-21T16:14:44.339Z,2.97
2022-08-21T16:17:11.811Z,2.67
2022-08-21T16:19:46.509Z,2.35
2022-08-21T16:22:16.079Z,2.75
2022-08-21T16:24:44.336Z,1.73
2022-08-21T16:27:19.663Z,2.05
2022-08-21T16:29:47.783Z,1.90
2022-08-21T16:32:15.450Z,2.42
2022-08-21T16:34:52.629Z,2.08
2022-08-21T16:37:24.569Z,2.88
2022-08-21T16:42:52.947Z,3.30
2022-08-21T16:45:31.092Z,2.38
2022-08-21T16:48:03.400Z,2.47
2022-08-21T16:50:30.974Z,2.15
2022-08-21T16:52:58.564Z,1.42
2022-08-21T16:55:39.566Z,1.90
2022-08-21T16:58:38.337Z,2.53
2022-08-21T17:01:15.482Z,1.80
2022-08-21T17:03:56.534Z,2.65
2022-08-21T17:06:31.280Z,3.58
2022-08-21T17:09:05.278Z,4.43
2022-08-21T17:11:48.623Z,2.35
2022-08-21T17:14:27.413Z,3.23
2022-08-21T17:16:59.067Z,2.35
2022-08-21T17:19:26.217Z,1.15
2022-08-21T17:21:53.527Z,2.60
2022-08-21T17:24:21.205Z,2.95
2022-08-21T17:27:01.659Z,2.70
